createdAt,value
2019-01-27T00:02:13.910Z,34.63
2019-01-27T00:04:43.816Z,34.73
2019-01-27T00:07:13.823Z,34.23
2019-01-27T00:09:43.637Z,34.67
2019-01-27T00:12:14.166Z,31.63
2019-01-27T00:14:46.866Z,31.07
2019-01-27T00:17:17.078Z,29.80
2019-01-27T00:19:50.099Z,37.30
2019-01-27T00:22:27.247Z,30.67
2019-01-27T00:25:00.847Z,32.40
2019-01-27T00:27:31.367Z,33.27
2019-01-27T00:30:00.872Z,31.90
2019-01-27T00:32:30.899Z,33.17
2019-01-27T00:35:00.916Z,33.60
2019-01-27T00:37:31.430Z,34.00
2019-01-27T00:40:01.551Z,32.60
2019-01-27T00:42:31.668Z,35.40
2019-01-27T00:45:01.709Z,33.73
2019-01-27T00:47:32.093Z,38.57
2019-01-27T00:50:02.355Z,33.87
2019-01-27T00:52:32.347Z,30.30
2019-01-27T00:55:02.570Z,34.87
2019-01-27T00:57:32.697Z,32.50
2019-01-27T01:00:02.605Z,32.53
2019-01-27T01:02:33.044Z,33.07
2019-01-27T01:05:06.096Z,38.93
2019-01-27T01:07:36.136Z,33.33
2019-01-27T01:10:06.661Z,32.67
2019-01-27T01:12:36.903Z,36.00
2019-01-27T01:15:08.257Z,34.17
2019-01-27T01:17:38.449Z,31.67
2019-01-27T01:20:10.010Z,34.57
2019-01-27T01:22:43.513Z,36.60
2019-01-27T01:25:15.259Z,36.07
2019-01-27T01:27:48.266Z,39.73
2019-01-27T01:30:19.082Z,34.77
2019-01-27T01:32:48.687Z,36.83
2019-01-27T01:35:18.936Z,36.67
2019-01-27T01:37:49.085Z,34.43
2019-01-27T01:40:19.658Z,36.87
2019-01-27T01:42:50.216Z,36.20
2019-01-27T01:45:26.089Z,35.70
2019-01-27T01:47:58.746Z,37.03
2019-01-27T01:50:33.174Z,32.70
2019-01-27T01:53:02.642Z,36.97
2019-01-27T01:55:32.784Z,34.80
2019-01-27T01:58:02.593Z,34.57
2019-01-27T02:00:33.216Z,36.87
2019-01-27T02:03:03.526Z,35.07
2019-01-27T02:05:33.773Z,35.03
2019-01-27T02:08:03.775Z,37.00
2019-01-27T02:10:33.678Z,35.33
2019-01-27T02:13:04.425Z,41.03
2019-01-27T02:15:40.486Z,34.13
2019-01-27T02:18:10.687Z,37.37
2019-01-27T02:20:40.725Z,35.50
2019-01-27T02:23:10.526Z,37.20
2019-01-27T02:25:40.868Z,37.03
2019-01-27T02:28:10.775Z,36.07
2019-01-27T02:30:41.606Z,39.57
2019-01-27T02:33:11.933Z,37.87
2019-01-27T02:35:41.832Z,37.87
2019-01-27T02:38:16.057Z,36.93
2019-01-27T02:40:45.873Z,37.73
2019-01-27T02:43:15.667Z,34.10
2019-01-27T02:45:45.685Z,34.63
2019-01-27T02:48:15.496Z,39.40
2019-01-27T02:50:45.722Z,37.47
2019-01-27T02:53:16.085Z,35.53
2019-01-27T02:55:45.867Z,37.77
2019-01-27T02:58:17.326Z,37.00
2019-01-27T03:00:47.645Z,33.60
2019-01-27T03:03:17.769Z,38.50
2019-01-27T03:05:57.415Z,34.17
2019-01-27T03:08:30.803Z,33.23
2019-01-27T03:11:00.918Z,31.17
2019-01-27T03:13:31.268Z,34.27
2019-01-27T03:16:02.783Z,32.83
2019-01-27T03:18:34.444Z,32.60
2019-01-27T03:21:06.804Z,30.73
2019-01-27T03:23:36.844Z,30.83
2019-01-27T03:26:07.447Z,28.80
2019-01-27T03:28:37.465Z,28.93
2019-01-27T03:31:07.514Z,28.30
2019-01-27T03:33:37.705Z,28.80
2019-01-27T03:36:07.843Z,28.87
2019-01-27T03:38:38.587Z,27.00
2019-01-27T03:41:08.595Z,27.07
2019-01-27T03:43:38.707Z,29.50
2019-01-27T03:46:08.936Z,26.43
2019-01-27T03:48:39.141Z,29.80
2019-01-27T03:51:09.787Z,27.13
2019-01-27T03:53:40.006Z,28.03
2019-01-27T03:56:10.516Z,26.63
2019-01-27T03:58:51.516Z,28.60
2019-01-27T04:01:48.079Z,25.00
2019-01-27T04:04:18.867Z,25.07
2019-01-27T04:06:50.828Z,25.50
2019-01-27T04:09:20.859Z,26.67
2019-01-27T04:11:52.005Z,26.13
2019-01-27T04:14:22.738Z,28.23
2019-01-27T04:16:52.738Z,24.93
2019-01-27T04:19:23.078Z,23.53
2019-01-27T04:21:53.287Z,23.70
2019-01-27T04:24:23.206Z,25.23
2019-01-27T04:26:53.111Z,22.47
2019-01-27T04:29:23.025Z,24.53
2019-01-27T04:31:53.058Z,23.70
2019-01-27T04:34:23.074Z,23.90
2019-01-27T04:36:52.974Z,24.43
2019-01-27T04:39:23.416Z,24.63
2019-01-27T04:41:53.836Z,22.40
2019-01-27T04:44:24.258Z,26.17
2019-01-27T04:46:56.095Z,23.00
2019-01-27T04:49:26.527Z,25.10
2019-01-27T04:51:56.649Z,24.00
2019-01-27T04:54:26.262Z,22.90
2019-01-27T04:56:55.758Z,23.53
2019-01-27T04:59:25.470Z,24.00
2019-01-27T05:01:54.767Z,21.83
2019-01-27T05:04:36.462Z,23.43
2019-01-27T05:07:06.473Z,24.93
2019-01-27T05:09:35.875Z,26.03
2019-01-27T05:12:05.788Z,25.97
2019-01-27T05:14:36.019Z,25.20
2019-01-27T05:17:05.720Z,25.07
2019-01-27T05:19:35.323Z,22.90
2019-01-27T05:22:05.245Z,23.60
2019-01-27T05:24:35.256Z,22.00
2019-01-27T05:27:05.069Z,20.40
2019-01-27T05:29:34.881Z,21.40
2019-01-27T05:32:04.794Z,20.33
2019-01-27T05:34:34.510Z,22.87
2019-01-27T05:37:04.214Z,22.80
2019-01-27T05:39:34.648Z,21.13
2019-01-27T05:42:04.350Z,21.00
2019-01-27T05:44:34.085Z,22.97
2019-01-27T05:47:03.770Z,21.93
2019-01-27T05:49:33.782Z,22.03
2019-01-27T05:52:03.494Z,23.67
2019-01-27T05:54:33.200Z,23.47
2019-01-27T05:57:03.019Z,23.00
2019-01-27T05:59:33.243Z,22.97
2019-01-27T06:02:02.839Z,27.57
2019-01-27T06:04:32.762Z,23.77
2019-01-27T06:07:02.465Z,25.53
2019-01-27T06:09:31.867Z,24.43
2019-01-27T06:12:01.678Z,24.73
2019-01-27T06:14:31.285Z,24.43
2019-01-27T06:17:00.788Z,23.07
2019-01-27T06:19:30.807Z,24.83
2019-01-27T06:22:00.410Z,24.07
2019-01-27T06:24:29.925Z,22.17
2019-01-27T06:26:59.838Z,26.30
2019-01-27T06:29:29.335Z,22.40
2019-01-27T06:31:58.741Z,21.27
2019-01-27T06:34:28.656Z,21.13
2019-01-27T06:36:58.466Z,21.20
2019-01-27T06:39:28.275Z,19.50
2019-01-27T06:41:57.785Z,19.47
2019-01-27T06:44:27.490Z,21.97
2019-01-27T06:46:57.506Z,23.67
2019-01-27T06:49:27.219Z,24.13
2019-01-27T06:51:57.023Z,23.87
2019-01-27T06:54:26.742Z,23.23
2019-01-27T06:56:56.455Z,21.33
2019-01-27T06:59:31.887Z,20.97
2019-01-27T07:02:20.440Z,20.07
2019-01-27T07:05:09.197Z,19.27
2019-01-27T07:07:57.746Z,19.73
2019-01-27T07:10:48.042Z,21.57
2019-01-27T07:13:37.206Z,22.37
2019-01-27T07:16:26.413Z,21.87
2019-01-27T07:19:15.118Z,21.10
2019-01-27T07:22:04.303Z,22.43
2019-01-27T07:25:12.405Z,23.00
2019-01-27T07:28:01.463Z,23.93
2019-01-27T07:33:30.702Z,22.17
2019-01-27T07:36:19.433Z,22.53
2019-01-27T07:39:08.623Z,22.33
2019-01-27T07:41:45.703Z,21.90
2019-01-27T07:44:34.235Z,20.60
2019-01-27T07:47:09.782Z,21.93
2019-01-27T07:49:54.549Z,22.33
2019-01-27T07:52:35.080Z,20.90
2019-01-27T07:55:24.121Z,20.37
2019-01-27T07:58:16.509Z,23.20
2019-01-27T08:00:55.751Z,20.93
2019-01-27T08:03:38.569Z,22.53
2019-01-27T08:06:23.834Z,22.90
2019-01-27T08:09:07.474Z,21.73
2019-01-27T08:11:56.222Z,21.40
2019-01-27T08:14:35.971Z,23.77
2019-01-27T08:17:24.835Z,21.23
2019-01-27T08:20:00.803Z,21.37
2019-01-27T08:22:49.334Z,22.67
2019-01-27T08:25:37.789Z,20.37
2019-01-27T08:28:18.655Z,20.23
2019-01-27T08:31:07.205Z,20.03
2019-01-27T08:33:52.796Z,21.13
2019-01-27T08:36:31.822Z,17.07
2019-01-27T08:39:20.676Z,19.30
2019-01-27T08:42:09.109Z,19.33
2019-01-27T08:44:57.671Z,18.27
2019-01-27T08:47:27.279Z,19.83
2019-01-27T08:49:57.084Z,20.43
2019-01-27T08:52:26.898Z,19.03
2019-01-27T08:54:57.735Z,20.17
2019-01-27T08:57:27.445Z,20.90
2019-01-27T08:59:57.353Z,21.50
2019-01-27T09:02:46.079Z,18.37
2019-01-27T09:05:29.345Z,20.03
2019-01-27T09:08:18.339Z,20.33
2019-01-27T09:11:07.476Z,22.27
2019-01-27T09:13:56.430Z,20.53
2019-01-27T09:16:45.185Z,18.90
2019-01-27T09:19:29.739Z,19.43
2019-01-27T09:22:18.605Z,18.80
2019-01-27T09:25:00.501Z,21.67
2019-01-27T09:27:35.730Z,25.80
2019-01-27T09:30:13.533Z,25.83
2019-01-27T09:32:58.293Z,25.00
2019-01-27T09:35:41.619Z,24.03
2019-01-27T09:38:26.295Z,24.63
2019-01-27T09:41:15.449Z,20.97
2019-01-27T09:44:04.404Z,18.97
2019-01-27T09:46:53.060Z,18.00
2019-01-27T09:49:42.226Z,19.27
2019-01-27T09:52:19.008Z,19.83
2019-01-27T09:55:02.434Z,18.57
2019-01-27T09:57:44.645Z,22.13
2019-01-27T10:00:34.309Z,18.20
2019-01-27T10:03:23.380Z,19.30
2019-01-27T10:06:12.857Z,18.03
2019-01-27T10:09:03.034Z,20.80
2019-01-27T10:11:47.799Z,22.67
2019-01-27T10:14:37.379Z,24.67
2019-01-27T10:17:26.436Z,23.43
2019-01-27T10:20:09.974Z,22.30
2019-01-27T10:22:55.559Z,20.43
2019-01-27T10:25:44.827Z,18.43
2019-01-27T10:28:34.506Z,20.93
2019-01-27T10:31:16.697Z,19.50
2019-01-27T10:34:05.355Z,18.07
2019-01-27T10:36:54.319Z,19.23
2019-01-27T10:39:43.783Z,16.37
2019-01-27T10:42:32.856Z,15.23
2019-01-27T10:45:21.916Z,17.10
2019-01-27T10:51:25.639Z,15.07
2019-01-27T10:54:00.779Z,13.97
2019-01-27T10:56:37.657Z,27.93
2019-01-27T10:59:26.814Z,18.70
2019-01-27T11:02:15.888Z,15.83
2019-01-27T11:04:56.339Z,14.83
2019-01-27T11:07:36.492Z,14.63
2019-01-27T11:10:25.760Z,14.37
2019-01-27T11:13:07.768Z,14.37
2019-01-27T11:15:56.334Z,14.20
2019-01-27T11:18:45.063Z,10.20
2019-01-27T11:21:34.027Z,10.17
2019-01-27T11:24:14.894Z,9.53
2019-01-27T11:26:53.211Z,9.70
2019-01-27T11:29:36.637Z,9.67
2019-01-27T11:32:26.215Z,11.47
2019-01-27T11:35:11.686Z,12.43
2019-01-27T11:38:00.662Z,14.27
2019-01-27T11:40:49.093Z,12.77
2019-01-27T11:43:29.258Z,12.17
2019-01-27T11:46:18.829Z,14.10
2019-01-27T11:49:00.012Z,14.23
2019-01-27T11:51:41.293Z,14.30
2019-01-27T11:54:11.096Z,15.43
2019-01-27T11:56:40.815Z,16.50
2019-01-27T11:59:11.660Z,20.80
2019-01-27T12:01:41.454Z,20.67
2019-01-27T12:04:11.474Z,20.70
2019-01-27T12:06:41.593Z,17.40
2019-01-27T12:09:11.412Z,16.97
2019-01-27T12:11:41.623Z,17.07
2019-01-27T12:14:11.644Z,22.00
2019-01-27T12:16:41.459Z,20.40
2019-01-27T12:19:11.680Z,17.97
2019-01-27T12:21:42.419Z,22.10
2019-01-27T12:24:12.523Z,19.07
2019-01-27T12:26:43.061Z,19.87
2019-01-27T12:29:13.386Z,18.53
2019-01-27T12:31:43.497Z,17.53
2019-01-27T12:34:13.416Z,16.20
2019-01-27T12:36:43.736Z,13.43
2019-01-27T12:39:13.666Z,15.57
2019-01-27T12:41:44.782Z,16.30
2019-01-27T12:44:14.909Z,15.53
2019-01-27T12:46:45.647Z,15.40
2019-01-27T12:49:16.686Z,15.07
2019-01-27T12:51:47.217Z,14.50
2019-01-27T12:54:20.819Z,14.13
2019-01-27T12:56:51.851Z,12.83
2019-01-27T12:59:23.424Z,13.17
2019-01-27T13:02:08.890Z,13.10
2019-01-27T13:04:49.556Z,11.67
2019-01-27T13:07:30.731Z,12.37
2019-01-27T13:10:11.611Z,13.20
2019-01-27T13:12:50.734Z,12.03
2019-01-27T13:15:27.928Z,10.77
2019-01-27T13:18:03.468Z,11.17
2019-01-27T13:20:38.286Z,12.17
2019-01-27T13:23:10.873Z,13.13
2019-01-27T13:25:46.083Z,14.90
2019-01-27T13:28:20.019Z,16.50
2019-01-27T13:30:55.668Z,17.20
2019-01-27T13:33:29.573Z,16.90
2019-01-27T13:36:03.578Z,17.27
2019-01-27T13:38:38.308Z,20.87
2019-01-27T13:41:11.802Z,20.73
2019-01-27T13:43:46.225Z,18.93
2019-01-27T13:46:19.626Z,17.03
2019-01-27T13:48:50.467Z,14.20
2019-01-27T13:51:23.957Z,14.37
2019-01-27T13:53:54.888Z,15.27
2019-01-27T13:56:33.312Z,14.77
2019-01-27T13:59:04.863Z,14.23
2019-01-27T14:01:38.469Z,16.03
2019-01-27T14:04:10.432Z,15.73
2019-01-27T14:06:42.380Z,15.80
2019-01-27T14:09:14.755Z,14.17
2019-01-27T14:11:49.375Z,14.13
2019-01-27T14:14:23.387Z,15.50
2019-01-27T14:16:55.250Z,14.17
2019-01-27T14:19:27.826Z,13.63
2019-01-27T14:22:02.112Z,14.83
2019-01-27T14:24:33.398Z,13.80
2019-01-27T14:27:09.671Z,14.37
2019-01-27T14:30:01.686Z,16.33
2019-01-27T14:32:38.327Z,15.47
2019-01-27T14:35:17.733Z,15.43
2019-01-27T14:37:53.086Z,14.77
2019-01-27T14:40:39.533Z,14.97
2019-01-27T14:43:21.094Z,14.53
2019-01-27T14:46:25.453Z,15.70
2019-01-27T14:49:09.189Z,15.53
2019-01-27T14:51:44.245Z,15.63
2019-01-27T14:54:18.965Z,14.97
2019-01-27T14:56:53.377Z,15.30
2019-01-27T14:59:35.765Z,15.03
2019-01-27T15:02:21.254Z,14.80
2019-01-27T15:04:58.021Z,15.90
2019-01-27T15:07:36.029Z,14.93
2019-01-27T15:10:16.085Z,14.53
2019-01-27T15:12:58.886Z,15.33
2019-01-27T15:15:38.438Z,16.27
2019-01-27T15:18:14.189Z,15.27
2019-01-27T15:20:50.254Z,14.97
2019-01-27T15:23:25.781Z,14.53
2019-01-27T15:25:56.766Z,15.17
2019-01-27T15:28:27.376Z,13.60
2019-01-27T15:30:57.897Z,15.57
2019-01-27T15:33:34.259Z,15.03
2019-01-27T15:36:05.083Z,15.23
2019-01-27T15:38:37.788Z,14.53
2019-01-27T15:41:13.009Z,19.80
2019-01-27T15:43:48.524Z,16.93
2019-01-27T15:46:18.064Z,14.60
2019-01-27T15:48:54.317Z,14.20
2019-01-27T15:51:26.123Z,14.63
2019-01-27T15:53:57.331Z,15.83
2019-01-27T15:56:32.682Z,16.53
2019-01-27T15:59:07.499Z,16.37
2019-01-27T16:01:51.044Z,15.73
2019-01-27T16:04:21.565Z,16.63
2019-01-27T16:06:57.637Z,17.23
2019-01-27T16:09:29.079Z,17.40
2019-01-27T16:12:00.829Z,17.40
2019-01-27T16:14:59.739Z,17.77
2019-01-27T16:20:52.796Z,18.13
2019-01-27T16:23:42.106Z,18.73
2019-01-27T16:26:13.735Z,19.17
2019-01-27T16:28:51.317Z,19.10
2019-01-27T16:31:46.765Z,19.60
2019-01-27T16:34:36.499Z,20.57
2019-01-27T16:37:09.477Z,18.33
2019-01-27T16:39:46.377Z,19.53
2019-01-27T16:42:23.755Z,18.60
2019-01-27T16:44:58.785Z,18.60
2019-01-27T16:47:38.106Z,19.43
2019-01-27T16:50:13.287Z,20.30
2019-01-27T16:52:45.849Z,19.67
2019-01-27T16:55:23.763Z,21.33
2019-01-27T16:57:58.983Z,23.23
2019-01-27T17:00:31.764Z,22.10
2019-01-27T17:03:06.801Z,21.93
2019-01-27T17:05:39.971Z,20.70
2019-01-27T17:08:17.573Z,20.43
2019-01-27T17:10:54.977Z,20.57
2019-01-27T17:13:27.534Z,20.73
2019-01-27T17:16:04.615Z,23.20
2019-01-27T17:18:41.072Z,20.73
2019-01-27T17:21:25.338Z,22.50
2019-01-27T17:23:55.983Z,23.20
2019-01-27T17:26:28.862Z,23.00
2019-01-27T17:29:05.419Z,23.00
2019-01-27T17:31:44.450Z,22.13
2019-01-27T17:34:14.575Z,22.67
2019-01-27T17:36:50.321Z,21.53
2019-01-27T17:39:42.249Z,22.83
2019-01-27T17:45:06.767Z,22.43
2019-01-27T17:47:49.158Z,22.67
2019-01-27T17:50:29.212Z,22.43
2019-01-27T17:53:03.627Z,23.37
2019-01-27T17:55:42.366Z,22.53
2019-01-27T17:58:33.894Z,21.73
2019-01-27T18:01:28.361Z,22.10
2019-01-27T18:04:23.589Z,24.17
2019-01-27T18:07:19.200Z,24.60
2019-01-27T18:10:11.546Z,22.77
2019-01-27T18:13:05.938Z,22.80
2019-01-27T18:15:37.694Z,22.50
2019-01-27T18:18:10.114Z,22.43
2019-01-27T18:20:42.618Z,22.47
2019-01-27T18:23:21.855Z,22.93
2019-01-27T18:25:54.099Z,22.33
2019-01-27T18:28:27.203Z,22.70
2019-01-27T18:30:58.782Z,22.77
2019-01-27T18:33:34.410Z,21.40
2019-01-27T18:36:07.109Z,21.37
2019-01-27T18:38:45.097Z,20.63
2019-01-27T18:41:19.081Z,20.30
2019-01-27T18:43:53.622Z,21.77
2019-01-27T18:46:28.142Z,24.23
2019-01-27T18:49:03.817Z,21.90
2019-01-27T18:51:37.801Z,20.63
2019-01-27T18:54:30.550Z,21.57
2019-01-27T18:57:16.846Z,23.67
2019-01-27T18:59:58.652Z,24.10
2019-01-27T19:02:50.696Z,20.97
2019-01-27T19:05:49.980Z,26.07
2019-01-27T19:08:40.387Z,23.17
2019-01-27T19:11:28.334Z,22.70
2019-01-27T19:14:18.515Z,23.20
2019-01-27T19:16:59.995Z,20.87
2019-01-27T19:19:52.628Z,21.40
2019-01-27T19:22:40.050Z,23.63
2019-01-27T19:25:36.284Z,20.13
2019-01-27T19:28:22.795Z,21.47
2019-01-27T19:31:06.647Z,20.33
2019-01-27T19:33:52.855Z,19.60
2019-01-27T19:40:07.709Z,18.20
2019-01-27T19:46:23.013Z,17.07
2019-01-27T19:49:02.443Z,19.47
2019-01-27T19:52:00.933Z,18.17
2019-01-27T19:54:51.107Z,18.77
2019-01-27T19:57:31.134Z,18.63
2019-01-27T20:00:23.088Z,18.73
2019-01-27T20:03:10.940Z,18.70
2019-01-27T20:05:57.548Z,19.43
2019-01-27T20:08:43.033Z,19.80
2019-01-27T20:11:39.763Z,17.63
2019-01-27T20:14:34.057Z,18.60
2019-01-27T20:17:12.876Z,19.40
2019-01-27T20:20:05.820Z,18.53
2019-01-27T20:22:57.754Z,18.70
2019-01-27T20:25:49.885Z,18.67
2019-01-27T20:28:30.981Z,19.50
2019-01-27T20:31:28.423Z,20.30
2019-01-27T20:34:20.462Z,19.40
2019-01-27T20:37:03.678Z,20.00
2019-01-27T20:39:46.502Z,21.40
2019-01-27T20:42:28.983Z,20.67
2019-01-27T20:45:28.632Z,22.53
2019-01-27T20:48:19.019Z,22.37
2019-01-27T20:51:04.606Z,20.17
2019-01-27T20:54:03.587Z,22.53
2019-01-27T20:57:13.985Z,23.63
2019-01-27T21:00:21.883Z,23.13
2019-01-27T21:03:09.080Z,22.90
2019-01-27T21:06:06.161Z,23.40
2019-01-27T21:08:57.952Z,22.50
2019-01-27T21:12:00.746Z,23.33
2019-01-27T21:14:42.541Z,22.97
2019-01-27T21:17:38.107Z,22.70
2019-01-27T21:20:28.236Z,21.30
2019-01-27T21:23:21.735Z,23.00
2019-01-27T21:26:03.930Z,23.33
2019-01-27T21:28:45.691Z,22.70
2019-01-27T21:31:25.133Z,22.73
2019-01-27T21:33:56.803Z,24.77
2019-01-27T21:36:31.012Z,22.90
2019-01-27T21:39:04.921Z,21.43
2019-01-27T21:41:42.914Z,23.90
2019-01-27T21:44:18.871Z,23.43
2019-01-27T21:47:10.965Z,24.63
2019-01-27T21:49:51.444Z,23.37
2019-01-27T21:52:48.964Z,23.33
2019-01-27T21:55:52.156Z,23.53
2019-01-27T22:05:04.128Z,23.87
2019-01-27T22:07:41.395Z,23.53
2019-01-27T22:10:18.833Z,22.57
2019-01-27T22:13:10.719Z,25.07
2019-01-27T22:15:54.975Z,21.90
2019-01-27T22:18:34.361Z,22.70
2019-01-27T22:21:10.640Z,22.90
2019-01-27T22:23:45.861Z,22.83
2019-01-27T22:26:24.745Z,22.23
2019-01-27T22:29:04.105Z,22.50
2019-01-27T22:31:39.045Z,23.03
2019-01-27T22:34:11.516Z,21.63
2019-01-27T22:36:45.787Z,23.63
2019-01-27T22:39:38.595Z,23.33
2019-01-27T22:42:21.475Z,22.90
2019-01-27T22:44:45.089Z,25.50
2019-01-27T22:47:16.955Z,25.40
2019-01-27T22:49:56.977Z,26.87
2019-01-27T22:52:38.643Z,29.00
2019-01-27T22:55:33.229Z,31.43
2019-01-27T23:01:14.573Z,30.33
2019-01-27T23:03:55.030Z,30.00
2019-01-27T23:06:39.430Z,28.03
2019-01-27T23:09:16.869Z,28.40
2019-01-27T23:11:50.672Z,29.40
2019-01-27T23:14:21.716Z,29.93
2019-01-27T23:20:14.077Z,26.53
2019-01-27T23:22:58.011Z,28.77
2019-01-27T23:28:29.033Z,29.53
2019-01-27T23:31:20.835Z,28.00
2019-01-27T23:34:22.777Z,29.40
2019-01-27T23:36:53.858Z,29.70
2019-01-27T23:39:25.475Z,29.30
2019-01-27T23:42:02.339Z,30.20
2019-01-27T23:44:38.705Z,28.97
2019-01-27T23:47:10.181Z,29.57
2019-01-27T23:49:43.757Z,27.50
2019-01-27T23:52:19.453Z,30.83
2019-01-27T23:54:58.134Z,29.23
2019-01-27T23:57:54.986Z,29.30
